sensor_id;sensor_type;location;lat;lon;timestamp;pressure;altitude;pressure_sealevel;temperature
74043;BMP280;62384;53.600;10.040;2022-08-14T00:00:49;101449.28;;;23.00
74043;BMP280;62384;53.600;10.040;2022-08-14T00:03:28;101450.13;;;22.97
74043;BMP280;62384;53.600;10.040;2022-08-14T00:05:55;101441.97;;;22.93
74043;BMP280;62384;53.600;10.040;2022-08-14T00:08:21;101434.16;;;22.91
74043;BMP280;62384;53.600;10.040;2022-08-14T00:10:47;101432.53;;;22.94
74043;BMP280;62384;53.600;10.040;2022-08-14T00:13:14;101414.09;;;22.78
74043;BMP280;62384;53.600;10.040;2022-08-14T00:15:42;101419.97;;;22.80
74043;BMP280;62384;53.600;10.040;2022-08-14T00:18:10;101405.88;;;22.78
74043;BMP280;62384;53.600;10.040;2022-08-14T00:20:38;101408.56;;;22.82
74043;BMP280;62384;53.600;10.040;2022-08-14T00:23:05;101408.16;;;22.83
74043;BMP280;62384;53.600;10.040;2022-08-14T00:25:30;101405.50;;;22.80
74043;BMP280;62384;53.600;10.040;2022-08-14T00:27:56;101407.09;;;22.77
74043;BMP280;62384;53.600;10.040;2022-08-14T00:30:21;101394.19;;;22.78
74043;BMP280;62384;53.600;10.040;2022-08-14T00:32:47;101380.50;;;22.78
74043;BMP280;62384;53.600;10.040;2022-08-14T00:35:12;101392.19;;;22.78
74043;BMP280;62384;53.600;10.040;2022-08-14T00:37:39;101385.19;;;22.77
74043;BMP280;62384;53.600;10.040;2022-08-14T00:40:06;101382.81;;;22.79
74043;BMP280;62384;53.600;10.040;2022-08-14T00:42:32;101380.50;;;22.78
74043;BMP280;62384;53.600;10.040;2022-08-14T00:44:58;101378.25;;;22.73
74043;BMP280;62384;53.600;10.040;2022-08-14T00:47:24;101370.03;;;22.73
74043;BMP280;62384;53.600;10.040;2022-08-14T00:49:51;101371.94;;;22.76
74043;BMP280;62384;53.600;10.040;2022-08-14T00:52:24;101359.72;;;22.80
74043;BMP280;62384;53.600;10.040;2022-08-14T00:54:50;101359.09;;;22.73
74043;BMP280;62384;53.600;10.040;2022-08-14T00:57:20;101351.97;;;22.75
74043;BMP280;62384;53.600;10.040;2022-08-14T00:59:47;101364.13;;;22.74
74043;BMP280;62384;53.600;10.040;2022-08-14T01:02:14;101361.84;;;22.73
74043;BMP280;62384;53.600;10.040;2022-08-14T01:04:39;101359.88;;;22.73
74043;BMP280;62384;53.600;10.040;2022-08-14T01:07:05;101356.06;;;22.67
74043;BMP280;62384;53.600;10.040;2022-08-14T01:09:31;101354.56;;;22.66
74043;BMP280;62384;53.600;10.040;2022-08-14T01:11:57;101350.34;;;22.62
74043;BMP280;62384;53.600;10.040;2022-08-14T01:14:23;101334.84;;;22.55
74043;BMP280;62384;53.600;10.040;2022-08-14T01:16:48;101341.06;;;22.56
74043;BMP280;62384;53.600;10.040;2022-08-14T01:19:14;101344.94;;;22.58
74043;BMP280;62384;53.600;10.040;2022-08-14T01:21:58;101341.78;;;22.60
74043;BMP280;62384;53.600;10.040;2022-08-14T01:24:24;101336.38;;;22.56
74043;BMP280;62384;53.600;10.040;2022-08-14T01:26:50;101337.50;;;22.59
74043;BMP280;62384;53.600;10.040;2022-08-14T01:29:18;101326.72;;;22.52
74043;BMP280;62384;53.600;10.040;2022-08-14T01:31:43;101322.00;;;22.52
74043;BMP280;62384;53.600;10.040;2022-08-14T01:34:17;101316.59;;;22.49
74043;BMP280;62384;53.600;10.040;2022-08-14T01:36:44;101316.38;;;22.59
74043;BMP280;62384;53.600;10.040;2022-08-14T01:39:14;101321.91;;;22.56
74043;BMP280;62384;53.600;10.040;2022-08-14T01:41:42;101320.81;;;22.53
74043;BMP280;62384;53.600;10.040;2022-08-14T01:44:12;101308.31;;;22.52
74043;BMP280;62384;53.600;10.040;2022-08-14T01:46:41;101309.53;;;22.51
74043;BMP280;62384;53.600;10.040;2022-08-14T01:49:11;101288.53;;;22.45
74043;BMP280;62384;53.600;10.040;2022-08-14T01:51:37;101290.56;;;22.44
74043;BMP280;62384;53.600;10.040;2022-08-14T01:54:12;101294.38;;;22.47
74043;BMP280;62384;53.600;10.040;2022-08-14T01:56:39;101277.00;;;22.37
74043;BMP280;62384;53.600;10.040;2022-08-14T02:01:39;101250.38;;;22.38
74043;BMP280;62384;53.600;10.040;2022-08-14T02:04:05;101251.66;;;22.33
74043;BMP280;62384;53.600;10.040;2022-08-14T02:06:30;101245.44;;;22.33
74043;BMP280;62384;53.600;10.040;2022-08-14T02:08:56;101243.47;;;22.33
74043;BMP280;62384;53.600;10.040;2022-08-14T02:11:22;101230.91;;;22.36
74043;BMP280;62384;53.600;10.040;2022-08-14T02:14:04;101229.09;;;22.29
74043;BMP280;62384;53.600;10.040;2022-08-14T02:16:32;101219.84;;;22.23
74043;BMP280;62384;53.600;10.040;2022-08-14T02:19:07;101205.41;;;22.23
74043;BMP280;62384;53.600;10.040;2022-08-14T02:21:33;101228.25;;;22.32
74043;BMP280;62384;53.600;10.040;2022-08-14T02:24:00;101206.19;;;22.23
74043;BMP280;62384;53.600;10.040;2022-08-14T02:26:31;101198.13;;;22.16
74043;BMP280;62384;53.600;10.040;2022-08-14T02:29:06;101196.19;;;22.17
74043;BMP280;62384;53.600;10.040;2022-08-14T02:31:34;101183.75;;;22.12
74043;BMP280;62384;53.600;10.040;2022-08-14T02:34:09;101181.03;;;22.12
74043;BMP280;62384;53.600;10.040;2022-08-14T02:36:38;101167.44;;;22.09
74043;BMP280;62384;53.600;10.040;2022-08-14T02:39:07;101163.84;;;22.12
74043;BMP280;62384;53.600;10.040;2022-08-14T02:41:34;101162.31;;;22.11
74043;BMP280;62384;53.600;10.040;2022-08-14T02:44:04;101167.50;;;22.05
74043;BMP280;62384;53.600;10.040;2022-08-14T02:46:30;101154.25;;;22.04
74043;BMP280;62384;53.600;10.040;2022-08-14T02:48:56;101149.56;;;22.04
74043;BMP280;62384;53.600;10.040;2022-08-14T02:51:21;101137.94;;;22.00
74043;BMP280;62384;53.600;10.040;2022-08-14T02:53:47;101124.75;;;21.95
74043;BMP280;62384;53.600;10.040;2022-08-14T02:56:16;101126.69;;;21.98
74043;BMP280;62384;53.600;10.040;2022-08-14T02:58:47;101112.31;;;21.94
74043;BMP280;62384;53.600;10.040;2022-08-14T03:01:14;101116.50;;;21.99
74043;BMP280;62384;53.600;10.040;2022-08-14T03:03:41;101102.97;;;21.92
74043;BMP280;62384;53.600;10.040;2022-08-14T03:06:07;101099.91;;;21.90
74043;BMP280;62384;53.600;10.040;2022-08-14T03:08:35;101110.41;;;21.91
74043;BMP280;62384;53.600;10.040;2022-08-14T03:11:03;101096.38;;;21.89
74043;BMP280;62384;53.600;10.040;2022-08-14T03:13:31;101108.53;;;21.88
74043;BMP280;62384;53.600;10.040;2022-08-14T03:16:00;101101.50;;;21.87
74043;BMP280;62384;53.600;10.040;2022-08-14T03:18:26;101085.63;;;21.82
74043;BMP280;62384;53.600;10.040;2022-08-14T03:20:51;101095.69;;;21.85
74043;BMP280;62384;53.600;10.040;2022-08-14T03:23:18;101091.84;;;21.82
74043;BMP280;62384;53.600;10.040;2022-08-14T03:25:44;101103.22;;;21.81
74043;BMP280;62384;53.600;10.040;2022-08-14T03:28:11;101096.13;;;21.83
74043;BMP280;62384;53.600;10.040;2022-08-14T03:30:37;101103.22;;;21.81
74043;BMP280;62384;53.600;10.040;2022-08-14T03:33:07;101077.22;;;21.73
74043;BMP280;62384;53.600;10.040;2022-08-14T03:35:33;101077.16;;;21.76
74043;BMP280;62384;53.600;10.040;2022-08-14T03:38:09;101076.53;;;21.69
74043;BMP280;62384;53.600;10.040;2022-08-14T03:40:36;101076.22;;;21.67
74043;BMP280;62384;53.600;10.040;2022-08-14T03:43:06;101064.16;;;21.64
74043;BMP280;62384;53.600;10.040;2022-08-14T03:45:33;101063.38;;;21.64
74043;BMP280;62384;53.600;10.040;2022-08-14T03:48:03;101061.41;;;21.64
74043;BMP280;62384;53.600;10.040;2022-08-14T03:50:30;101060.28;;;21.62
74043;BMP280;62384;53.600;10.040;2022-08-14T03:52:57;101050.13;;;21.62
74043;BMP280;62384;53.600;10.040;2022-08-14T03:55:23;101039.56;;;21.64
74043;BMP280;62384;53.600;10.040;2022-08-14T03:57:49;101048.88;;;21.67
74043;BMP280;62384;53.600;10.040;2022-08-14T04:00:14;101040.31;;;21.65
74043;BMP280;62384;53.600;10.040;2022-08-14T04:02:40;101029.97;;;21.56
74043;BMP280;62384;53.600;10.040;2022-08-14T04:05:07;101034.59;;;21.59
74043;BMP280;62384;53.600;10.040;2022-08-14T04:07:32;101029.81;;;21.63
74043;BMP280;62384;53.600;10.040;2022-08-14T04:09:59;101016.75;;;21.55
74043;BMP280;62384;53.600;10.040;2022-08-14T04:12:24;100989.91;;;21.50
74043;BMP280;62384;53.600;10.040;2022-08-14T04:14:49;101001.94;;;21.52
74043;BMP280;62384;53.600;10.040;2022-08-14T04:17:17;100999.41;;;21.45
74043;BMP280;62384;53.600;10.040;2022-08-14T04:19:42;100994.28;;;21.47
74043;BMP280;62384;53.600;10.040;2022-08-14T04:22:09;100981.78;;;21.46
74043;BMP280;62384;53.600;10.040;2022-08-14T04:24:34;100960.34;;;21.29
74043;BMP280;62384;53.600;10.040;2022-08-14T04:27:00;100975.22;;;21.44
74043;BMP280;62384;53.600;10.040;2022-08-14T04:29:25;100977.44;;;21.49
74043;BMP280;62384;53.600;10.040;2022-08-14T04:31:51;100960.88;;;21.40
74043;BMP280;62384;53.600;10.040;2022-08-14T04:34:16;100946.50;;;21.36
74043;BMP280;62384;53.600;10.040;2022-08-14T04:36:42;100950.31;;;21.42
74043;BMP280;62384;53.600;10.040;2022-08-14T04:39:25;100943.28;;;21.41
74043;BMP280;62384;53.600;10.040;2022-08-14T04:42:24;100946.00;;;21.41
74043;BMP280;62384;53.600;10.040;2022-08-14T04:45:08;100935.94;;;21.38
74043;BMP280;62384;53.600;10.040;2022-08-14T04:47:33;100937.03;;;21.40
74043;BMP280;62384;53.600;10.040;2022-08-14T04:50:17;100925.28;;;21.43
74043;BMP280;62384;53.600;10.040;2022-08-14T04:52:43;100917.53;;;21.42
74043;BMP280;62384;53.600;10.040;2022-08-14T04:55:08;100894.81;;;21.29
74043;BMP280;62384;53.600;10.040;2022-08-14T04:57:37;100881.88;;;21.29
74043;BMP280;62384;53.600;10.040;2022-08-14T05:00:04;100879.06;;;21.33
74043;BMP280;62384;53.600;10.040;2022-08-14T05:02:30;100881.31;;;21.38
74043;BMP280;62384;53.600;10.040;2022-08-14T05:04:58;100872.34;;;21.37
74043;BMP280;62384;53.600;10.040;2022-08-14T05:07:24;100864.16;;;21.37
74043;BMP280;62384;53.600;10.040;2022-08-14T05:09:49;100842.22;;;21.25
74043;BMP280;62384;53.600;10.040;2022-08-14T05:12:14;100856.72;;;21.38
74043;BMP280;62384;53.600;10.040;2022-08-14T05:14:40;100873.97;;;21.51
74043;BMP280;62384;53.600;10.040;2022-08-14T05:17:06;100863.91;;;21.48
74043;BMP280;62384;53.600;10.040;2022-08-14T05:19:31;100864.56;;;21.52
74043;BMP280;62384;53.600;10.040;2022-08-14T05:21:56;100857.66;;;21.47
74043;BMP280;62384;53.600;10.040;2022-08-14T05:24:23;100854.84;;;21.51
74043;BMP280;62384;53.600;10.040;2022-08-14T05:26:48;100844.31;;;21.49
74043;BMP280;62384;53.600;10.040;2022-08-14T05:29:13;100856.53;;;21.61
74043;BMP280;62384;53.600;10.040;2022-08-14T05:31:38;100844.50;;;21.58
74043;BMP280;62384;53.600;10.040;2022-08-14T05:34:05;100852.31;;;21.72
74043;BMP280;62384;53.600;10.040;2022-08-14T05:36:32;100854.72;;;21.70
74043;BMP280;62384;53.600;10.040;2022-08-14T05:38:58;100852.41;;;21.69
74043;BMP280;62384;53.600;10.040;2022-08-14T05:41:24;100831.75;;;21.68
74043;BMP280;62384;53.600;10.040;2022-08-14T05:43:50;100842.06;;;21.76
74043;BMP280;62384;53.600;10.040;2022-08-14T05:46:17;100836.59;;;21.76
74043;BMP280;62384;53.600;10.040;2022-08-14T05:48:48;100841.13;;;21.83
74043;BMP280;62384;53.600;10.040;2022-08-14T05:51:13;100829.16;;;21.77
74043;BMP280;62384;53.600;10.040;2022-08-14T05:53:38;100831.03;;;21.80
74043;BMP280;62384;53.600;10.040;2022-08-14T05:56:04;100824.47;;;21.77
74043;BMP280;62384;53.600;10.040;2022-08-14T05:58:29;100822.88;;;21.93
74043;BMP280;62384;53.600;10.040;2022-08-14T06:00:55;100818.50;;;21.95
74043;BMP280;62384;53.600;10.040;2022-08-14T06:03:22;100827.38;;;21.99
74043;BMP280;62384;53.600;10.040;2022-08-14T06:05:50;100836.59;;;22.05
74043;BMP280;62384;53.600;10.040;2022-08-14T06:08:25;100838.34;;;22.12
74043;BMP280;62384;53.600;10.040;2022-08-14T06:10:55;100833.91;;;22.18
74043;BMP280;62384;53.600;10.040;2022-08-14T06:13:21;100829.28;;;22.15
74043;BMP280;62384;53.600;10.040;2022-08-14T06:15:48;100832.06;;;22.27
74043;BMP280;62384;53.600;10.040;2022-08-14T06:18:15;100840.78;;;22.22
74043;BMP280;62384;53.600;10.040;2022-08-14T06:20:42;100801.69;;;21.97
74043;BMP280;62384;53.600;10.040;2022-08-14T06:23:07;100852.03;;;22.40
74043;BMP280;62384;53.600;10.040;2022-08-14T06:25:33;100834.06;;;22.39
74043;BMP280;62384;53.600;10.040;2022-08-14T06:27:58;100850.56;;;22.48
74043;BMP280;62384;53.600;10.040;2022-08-14T06:30:27;100847.66;;;22.55
74043;BMP280;62384;53.600;10.040;2022-08-14T06:32:53;100845.66;;;22.56
74043;BMP280;62384;53.600;10.040;2022-08-14T06:35:19;100871.09;;;22.69
74043;BMP280;62384;53.600;10.040;2022-08-14T06:37:47;100881.38;;;22.77
74043;BMP280;62384;53.600;10.040;2022-08-14T06:40:15;100871.09;;;22.81
74043;BMP280;62384;53.600;10.040;2022-08-14T06:42:42;100877.44;;;22.91
74043;BMP280;62384;53.600;10.040;2022-08-14T06:45:08;100891.47;;;22.93
74043;BMP280;62384;53.600;10.040;2022-08-14T06:47:38;100898.81;;;22.96
74043;BMP280;62384;53.600;10.040;2022-08-14T06:50:06;100900.56;;;23.03
74043;BMP280;62384;53.600;10.040;2022-08-14T06:52:32;100907.00;;;23.09
74043;BMP280;62384;53.600;10.040;2022-08-14T06:54:58;100901.88;;;23.11
74043;BMP280;62384;53.600;10.040;2022-08-14T06:57:24;100923.00;;;23.23
74043;BMP280;62384;53.600;10.040;2022-08-14T06:59:49;100914.34;;;23.24
74043;BMP280;62384;53.600;10.040;2022-08-14T07:02:15;100908.22;;;23.33
74043;BMP280;62384;53.600;10.040;2022-08-14T07:05:06;100900.06;;;23.42
74043;BMP280;62384;53.600;10.040;2022-08-14T07:07:50;100913.63;;;23.58
74043;BMP280;62384;53.600;10.040;2022-08-14T07:10:16;100919.78;;;23.62
74043;BMP280;62384;53.600;10.040;2022-08-14T07:12:46;100938.59;;;23.72
74043;BMP280;62384;53.600;10.040;2022-08-14T07:15:12;100915.66;;;23.66
74043;BMP280;62384;53.600;10.040;2022-08-14T07:17:47;100943.38;;;23.81
74043;BMP280;62384;53.600;10.040;2022-08-14T07:20:13;100922.94;;;23.73
74043;BMP280;62384;53.600;10.040;2022-08-14T07:22:38;100903.44;;;23.58
74043;BMP280;62384;53.600;10.040;2022-08-14T07:25:04;100953.56;;;23.80
74043;BMP280;62384;53.600;10.040;2022-08-14T07:27:30;100925.28;;;23.83
74043;BMP280;62384;53.600;10.040;2022-08-14T07:29:56;100934.13;;;23.87
74043;BMP280;62384;53.600;10.040;2022-08-14T07:32:21;100936.00;;;23.90
74043;BMP280;62384;53.600;10.040;2022-08-14T07:34:47;100926.81;;;23.84
74043;BMP280;62384;53.600;10.040;2022-08-14T07:37:12;100926.69;;;23.88
74043;BMP280;62384;53.600;10.040;2022-08-14T07:39:37;100940.81;;;23.99
74043;BMP280;62384;53.600;10.040;2022-08-14T07:42:03;100943.75;;;24.04
74043;BMP280;62384;53.600;10.040;2022-08-14T07:44:28;100944.69;;;24.10
74043;BMP280;62384;53.600;10.040;2022-08-14T07:46:54;100955.19;;;24.25
74043;BMP280;62384;53.600;10.040;2022-08-14T07:49:20;100962.56;;;24.37
74043;BMP280;62384;53.600;10.040;2022-08-14T07:51:46;100986.47;;;24.49
74043;BMP280;62384;53.600;10.040;2022-08-14T07:54:12;100993.66;;;24.55
74043;BMP280;62384;53.600;10.040;2022-08-14T07:56:38;100984.19;;;24.56
74043;BMP280;62384;53.600;10.040;2022-08-14T07:59:03;100970.28;;;24.51
74043;BMP280;62384;53.600;10.040;2022-08-14T08:01:30;101019.16;;;24.86
74043;BMP280;62384;53.600;10.040;2022-08-14T08:03:56;100994.69;;;25.01
74043;BMP280;62384;53.600;10.040;2022-08-14T08:06:23;101005.69;;;25.10
74043;BMP280;62384;53.600;10.040;2022-08-14T08:08:52;101003.31;;;25.21
74043;BMP280;62384;53.600;10.040;2022-08-14T08:11:19;101021.03;;;25.29
74043;BMP280;62384;53.600;10.040;2022-08-14T08:13:46;101015.38;;;25.32
74043;BMP280;62384;53.600;10.040;2022-08-14T08:16:14;101016.94;;;25.42
74043;BMP280;62384;53.600;10.040;2022-08-14T08:18:40;101035.94;;;25.59
74043;BMP280;62384;53.600;10.040;2022-08-14T08:21:06;101052.34;;;25.80
74043;BMP280;62384;53.600;10.040;2022-08-14T08:23:33;101041.81;;;25.88
74043;BMP280;62384;53.600;10.040;2022-08-14T08:25:58;101061.66;;;25.92
74043;BMP280;62384;53.600;10.040;2022-08-14T08:28:25;101058.16;;;25.91
74043;BMP280;62384;53.600;10.040;2022-08-14T08:31:01;101058.03;;;26.22
74043;BMP280;62384;53.600;10.040;2022-08-14T08:33:28;101071.19;;;26.36
74043;BMP280;62384;53.600;10.040;2022-08-14T08:36:00;101078.78;;;26.68
74043;BMP280;62384;53.600;10.040;2022-08-14T08:38:26;101065.28;;;26.79
74043;BMP280;62384;53.600;10.040;2022-08-14T08:40:57;101084.44;;;26.73
74043;BMP280;62384;53.600;10.040;2022-08-14T08:46:06;101114.81;;;27.15
74043;BMP280;62384;53.600;10.040;2022-08-14T08:48:46;101129.00;;;27.23
74043;BMP280;62384;53.600;10.040;2022-08-14T08:51:22;101113.88;;;27.18
74043;BMP280;62384;53.600;10.040;2022-08-14T08:53:58;101099.59;;;27.20
74043;BMP280;62384;53.600;10.040;2022-08-14T08:56:43;101112.94;;;27.21
74043;BMP280;62384;53.600;10.040;2022-08-14T09:01:49;101119.75;;;27.44
74043;BMP280;62384;53.600;10.040;2022-08-14T09:04:15;101124.56;;;27.58
74043;BMP280;62384;53.600;10.040;2022-08-14T09:06:44;101115.94;;;27.88
74043;BMP280;62384;53.600;10.040;2022-08-14T09:09:18;101137.38;;;27.93
74043;BMP280;62384;53.600;10.040;2022-08-14T09:11:43;101147.75;;;28.07
74043;BMP280;62384;53.600;10.040;2022-08-14T09:14:09;101145.25;;;27.86
74043;BMP280;62384;53.600;10.040;2022-08-14T09:16:36;101152.06;;;27.99
74043;BMP280;62384;53.600;10.040;2022-08-14T09:19:02;101145.34;;;28.15
74043;BMP280;62384;53.600;10.040;2022-08-14T09:21:28;101135.13;;;28.30
74043;BMP280;62384;53.600;10.040;2022-08-14T09:23:54;101173.28;;;28.55
74043;BMP280;62384;53.600;10.040;2022-08-14T09:26:20;101173.09;;;28.59
74043;BMP280;62384;53.600;10.040;2022-08-14T09:28:45;101170.97;;;28.54
74043;BMP280;62384;53.600;10.040;2022-08-14T09:31:12;101172.50;;;28.55
74043;BMP280;62384;53.600;10.040;2022-08-14T09:42:47;101169.38;;;29.05
74043;BMP280;62384;53.600;10.040;2022-08-14T09:45:19;101163.84;;;29.05
74043;BMP280;62384;53.600;10.040;2022-08-14T09:47:55;101165.59;;;29.03
74043;BMP280;62384;53.600;10.040;2022-08-14T09:50:30;101171.75;;;28.98
74043;BMP280;62384;53.600;10.040;2022-08-14T09:53:03;101171.50;;;28.96
74043;BMP280;62384;53.600;10.040;2022-08-14T09:55:31;101171.84;;;28.89
74043;BMP280;62384;53.600;10.040;2022-08-14T10:00:45;101173.47;;;28.81
74043;BMP280;62384;53.600;10.040;2022-08-14T10:03:11;101161.56;;;28.89
74043;BMP280;62384;53.600;10.040;2022-08-14T10:05:38;101155.94;;;28.98
74043;BMP280;62384;53.600;10.040;2022-08-14T10:08:04;101156.31;;;29.20
74043;BMP280;62384;53.600;10.040;2022-08-14T10:10:40;101146.38;;;29.28
74043;BMP280;62384;53.600;10.040;2022-08-14T10:13:20;101144.94;;;29.53
74043;BMP280;62384;53.600;10.040;2022-08-14T10:15:46;101160.31;;;29.54
74043;BMP280;62384;53.600;10.040;2022-08-14T10:18:16;101157.56;;;29.54
74043;BMP280;62384;53.600;10.040;2022-08-14T10:23:21;101150.66;;;29.49
74043;BMP280;62384;53.600;10.040;2022-08-14T10:25:50;101153.16;;;29.47
74043;BMP280;62384;53.600;10.040;2022-08-14T10:28:20;101146.41;;;29.48
74043;BMP280;62384;53.600;10.040;2022-08-14T10:30:48;101140.31;;;29.44
74043;BMP280;62384;53.600;10.040;2022-08-14T10:33:30;101134.59;;;29.33
74043;BMP280;62384;53.600;10.040;2022-08-14T10:35:57;101150.97;;;29.17
74043;BMP280;62384;53.600;10.040;2022-08-14T10:38:30;101144.22;;;28.89
74043;BMP280;62384;53.600;10.040;2022-08-14T10:41:09;101139.06;;;28.82
74043;BMP280;62384;53.600;10.040;2022-08-14T10:43:36;101128.13;;;28.73
74043;BMP280;62384;53.600;10.040;2022-08-14T10:46:11;101130.88;;;28.73
74043;BMP280;62384;53.600;10.040;2022-08-14T10:48:40;101120.13;;;28.60
74043;BMP280;62384;53.600;10.040;2022-08-14T10:51:05;101125.03;;;28.56
74043;BMP280;62384;53.600;10.040;2022-08-14T10:53:33;101119.34;;;28.60
74043;BMP280;62384;53.600;10.040;2022-08-14T10:56:01;101124.69;;;28.63
74043;BMP280;62384;53.600;10.040;2022-08-14T10:58:31;101123.34;;;28.59
74043;BMP280;62384;53.600;10.040;2022-08-14T11:00:59;101123.34;;;28.59
74043;BMP280;62384;53.600;10.040;2022-08-14T11:03:40;101116.38;;;28.49
74043;BMP280;62384;53.600;10.040;2022-08-14T11:06:16;101109.81;;;28.46
74043;BMP280;62384;53.600;10.040;2022-08-14T11:08:47;101111.72;;;28.40
74043;BMP280;62384;53.600;10.040;2022-08-14T11:11:15;101075.69;;;28.20
74043;BMP280;62384;53.600;10.040;2022-08-14T11:13:43;101115.25;;;28.55
74043;BMP280;62384;53.600;10.040;2022-08-14T11:16:13;101111.13;;;28.51
74043;BMP280;62384;53.600;10.040;2022-08-14T11:18:44;101109.72;;;28.55
74043;BMP280;62384;53.600;10.040;2022-08-14T11:21:17;101111.22;;;28.56
74043;BMP280;62384;53.600;10.040;2022-08-14T11:23:44;101117.16;;;28.49
74043;BMP280;62384;53.600;10.040;2022-08-14T11:26:12;101112.84;;;28.48
74043;BMP280;62384;53.600;10.040;2022-08-14T11:28:40;101105.31;;;28.49
74043;BMP280;62384;53.600;10.040;2022-08-14T11:31:10;101100.94;;;28.42
74043;BMP280;62384;53.600;10.040;2022-08-14T11:33:37;101098.75;;;28.46
74043;BMP280;62384;53.600;10.040;2022-08-14T11:36:05;101099.72;;;28.43
74043;BMP280;62384;53.600;10.040;2022-08-14T11:38:39;101094.84;;;28.38
74043;BMP280;62384;53.600;10.040;2022-08-14T11:41:09;101095.31;;;28.51
74043;BMP280;62384;53.600;10.040;2022-08-14T11:43:43;101097.22;;;28.45
74043;BMP280;62384;53.600;10.040;2022-08-14T11:46:09;101089.88;;;28.42
74043;BMP280;62384;53.600;10.040;2022-08-14T11:48:45;101084.31;;;28.27
74043;BMP280;62384;53.600;10.040;2022-08-14T11:51:14;101077.75;;;28.25
74043;BMP280;62384;53.600;10.040;2022-08-14T11:53:49;101071.84;;;28.17
74043;BMP280;62384;53.600;10.040;2022-08-14T11:56:17;101072.25;;;28.10
74043;BMP280;62384;53.600;10.040;2022-08-14T11:58:50;101066.22;;;28.12
74043;BMP280;62384;53.600;10.040;2022-08-14T12:01:23;101061.63;;;28.09
74043;BMP280;62384;53.600;10.040;2022-08-14T12:03:51;101045.34;;;27.96
74043;BMP280;62384;53.600;10.040;2022-08-14T12:06:19;101045.34;;;27.96
74043;BMP280;62384;53.600;10.040;2022-08-14T12:08:44;101049.72;;;28.03
74043;BMP280;62384;53.600;10.040;2022-08-14T12:11:13;101045.56;;;28.07
74043;BMP280;62384;53.600;10.040;2022-08-14T12:13:41;101045.25;;;28.05
74043;BMP280;62384;53.600;10.040;2022-08-14T12:16:09;101061.47;;;28.12
74043;BMP280;62384;53.600;10.040;2022-08-14T12:18:39;101052.22;;;28.15
74043;BMP280;62384;53.600;10.040;2022-08-14T12:21:14;101048.25;;;28.31
74043;BMP280;62384;53.600;10.040;2022-08-14T12:23:41;101048.53;;;28.33
74043;BMP280;62384;53.600;10.040;2022-08-14T12:26:12;101049.22;;;28.43
74043;BMP280;62384;53.600;10.040;2022-08-14T12:28:38;101036.50;;;28.51
74043;BMP280;62384;53.600;10.040;2022-08-14T12:31:12;101029.38;;;28.73
74043;BMP280;62384;53.600;10.040;2022-08-14T12:33:42;101018.63;;;28.95
74043;BMP280;62384;53.600;10.040;2022-08-14T12:36:17;101018.47;;;29.19
74043;BMP280;62384;53.600;10.040;2022-08-14T12:38:45;101004.00;;;29.49
74043;BMP280;62384;53.600;10.040;2022-08-14T12:41:16;101008.84;;;29.74
74043;BMP280;62384;53.600;10.040;2022-08-14T12:43:44;101002.44;;;29.88
74043;BMP280;62384;53.600;10.040;2022-08-14T12:46:21;101013.72;;;30.11
74043;BMP280;62384;53.600;10.040;2022-08-14T12:48:48;101007.56;;;30.27
74043;BMP280;62384;53.600;10.040;2022-08-14T12:51:16;101013.94;;;30.38
74043;BMP280;62384;53.600;10.040;2022-08-14T12:53:42;100998.97;;;30.56
74043;BMP280;62384;53.600;10.040;2022-08-14T12:56:09;101001.31;;;31.10
74043;BMP280;62384;53.600;10.040;2022-08-14T12:58:36;100995.94;;;31.65
74043;BMP280;62384;53.600;10.040;2022-08-14T13:01:02;100990.91;;;32.25
74043;BMP280;62384;53.600;10.040;2022-08-14T13:03:30;100982.78;;;33.17
74043;BMP280;62384;53.600;10.040;2022-08-14T13:05:55;100988.94;;;33.45
74043;BMP280;62384;53.600;10.040;2022-08-14T13:08:21;100981.66;;;33.71
74043;BMP280;62384;53.600;10.040;2022-08-14T13:10:48;100980.75;;;33.87
74043;BMP280;62384;53.600;10.040;2022-08-14T13:13:18;100964.13;;;34.54
74043;BMP280;62384;53.600;10.040;2022-08-14T13:15:47;100976.03;;;34.36
74043;BMP280;62384;53.600;10.040;2022-08-14T13:18:17;100955.88;;;33.95
74043;BMP280;62384;53.600;10.040;2022-08-14T13:20:43;100960.88;;;33.43
74043;BMP280;62384;53.600;10.040;2022-08-14T13:23:11;100958.31;;;32.99
74043;BMP280;62384;53.600;10.040;2022-08-14T13:25:38;100957.19;;;32.78
74043;BMP280;62384;53.600;10.040;2022-08-14T13:28:05;100954.00;;;32.41
74043;BMP280;62384;53.600;10.040;2022-08-14T13:30:31;100956.00;;;32.46
74043;BMP280;62384;53.600;10.040;2022-08-14T13:32:57;100940.88;;;32.13
74043;BMP280;62384;53.600;10.040;2022-08-14T13:35:25;100941.16;;;31.93
74043;BMP280;62384;53.600;10.040;2022-08-14T13:37:51;100937.88;;;32.00
74043;BMP280;62384;53.600;10.040;2022-08-14T13:40:19;100931.06;;;31.90
74043;BMP280;62384;53.600;10.040;2022-08-14T13:42:46;100926.53;;;31.82
74043;BMP280;62384;53.600;10.040;2022-08-14T13:45:12;100912.63;;;31.87
74043;BMP280;62384;53.600;10.040;2022-08-14T13:47:40;100910.09;;;31.95
74043;BMP280;62384;53.600;10.040;2022-08-14T13:50:08;100901.72;;;32.28
74043;BMP280;62384;53.600;10.040;2022-08-14T13:52:41;100901.44;;;32.32
74043;BMP280;62384;53.600;10.040;2022-08-14T13:55:08;100898.44;;;32.24
74043;BMP280;62384;53.600;10.040;2022-08-14T13:57:38;100889.03;;;32.44
74043;BMP280;62384;53.600;10.040;2022-08-14T14:00:09;100894.84;;;32.40
74043;BMP280;62384;53.600;10.040;2022-08-14T14:02:44;100892.09;;;32.24
74043;BMP280;62384;53.600;10.040;2022-08-14T14:05:10;100896.41;;;32.25
74043;BMP280;62384;53.600;10.040;2022-08-14T14:07:43;100891.31;;;32.34
74043;BMP280;62384;53.600;10.040;2022-08-14T14:10:12;100883.53;;;32.16
74043;BMP280;62384;53.600;10.040;2022-08-14T14:12:39;100890.34;;;32.26